createdAt,value
2017-07-27T00:00:59.497Z,83.89
2017-07-27T00:03:28.735Z,84.67
2017-07-27T00:05:58.314Z,85.15
2017-07-27T00:08:31.442Z,85.72
2017-07-27T00:11:01.036Z,85.61
2017-07-27T00:13:30.615Z,84.92
2017-07-27T00:16:00.188Z,84.80
2017-07-27T00:18:29.420Z,85.26
2017-07-27T00:20:58.980Z,83.91
2017-07-27T00:23:28.594Z,84.19
2017-07-27T00:25:58.177Z,84.41
2017-07-27T00:28:27.730Z,84.04
2017-07-27T00:30:57.287Z,84.61
2017-07-27T00:33:26.858Z,83.94
2017-07-27T00:35:56.455Z,84.47
2017-07-27T00:38:26.046Z,84.38
2017-07-27T00:40:55.591Z,84.87
2017-07-27T00:43:25.131Z,84.67
2017-07-27T00:45:54.774Z,83.53
2017-07-27T00:48:24.002Z,83.65
2017-07-27T00:50:53.534Z,83.57
2017-07-27T00:53:23.345Z,83.37
2017-07-27T00:55:52.901Z,84.11
2017-07-27T00:58:22.463Z,83.88
2017-07-27T01:00:52.059Z,83.42
2017-07-27T01:03:22.008Z,83.27
2017-07-27T01:05:51.574Z,83.88
2017-07-27T01:08:21.931Z,83.34
2017-07-27T01:10:51.499Z,83.34
2017-07-27T01:13:42.215Z,82.67
2017-07-27T01:16:12.535Z,83.18
2017-07-27T01:18:42.896Z,83.06
2017-07-27T01:21:12.444Z,83.53
2017-07-27T01:23:42.014Z,83.46
2017-07-27T01:26:11.564Z,83.87
2017-07-27T01:28:41.134Z,83.28
2017-07-27T01:31:10.005Z,84.08
2017-07-27T01:33:39.558Z,84.14
2017-07-27T01:36:09.135Z,83.23
2017-07-27T01:38:38.706Z,83.81
2017-07-27T01:41:08.715Z,83.42
2017-07-27T01:43:38.732Z,83.88
2017-07-27T01:46:07.957Z,83.96
2017-07-27T01:48:37.542Z,83.28
2017-07-27T01:51:07.517Z,83.21
2017-07-27T01:53:36.722Z,82.90
2017-07-27T01:56:05.609Z,81.88
2017-07-27T01:58:34.468Z,82.42
2017-07-27T02:01:03.700Z,82.38
2017-07-27T02:03:33.233Z,82.38
2017-07-27T02:06:02.102Z,82.08
2017-07-27T02:08:31.726Z,81.48
2017-07-27T02:11:02.067Z,81.24
2017-07-27T02:13:32.420Z,82.27
2017-07-27T02:16:01.980Z,82.01
2017-07-27T02:18:31.521Z,81.65
2017-07-27T02:21:01.061Z,81.40
2017-07-27T02:23:30.619Z,81.48
2017-07-27T02:26:00.916Z,81.60
2017-07-27T02:28:30.674Z,81.70
2017-07-27T02:31:00.213Z,81.48
2017-07-27T02:33:29.808Z,81.08
2017-07-27T02:35:59.386Z,80.45
2017-07-27T02:38:29.791Z,81.51
2017-07-27T02:41:00.127Z,80.13
2017-07-27T02:43:30.450Z,81.36
2017-07-27T02:46:00.043Z,81.44
2017-07-27T02:48:29.578Z,81.87
2017-07-27T02:50:59.144Z,81.71
2017-07-27T02:53:28.744Z,81.13
2017-07-27T02:55:58.300Z,81.25
2017-07-27T02:58:28.661Z,81.30
2017-07-27T03:00:58.204Z,81.76
2017-07-27T03:03:27.780Z,81.69
2017-07-27T03:05:57.313Z,81.20
2017-07-27T03:08:26.894Z,82.05
2017-07-27T03:10:56.456Z,81.95
2017-07-27T03:13:26.758Z,82.36
2017-07-27T03:15:56.329Z,82.25
2017-07-27T03:18:25.525Z,82.46
2017-07-27T03:20:55.102Z,83.59
2017-07-27T03:23:24.685Z,83.87
2017-07-27T03:25:55.004Z,83.16
2017-07-27T03:28:25.354Z,82.73
2017-07-27T03:30:55.687Z,82.47
2017-07-27T03:33:25.257Z,82.90
2017-07-27T03:35:55.600Z,83.15
2017-07-27T03:38:25.954Z,82.37
2017-07-27T03:40:55.511Z,82.06
2017-07-27T03:43:25.098Z,81.93
2017-07-27T03:45:54.650Z,81.52
2017-07-27T03:48:24.670Z,81.50
2017-07-27T03:50:54.972Z,81.15
2017-07-27T03:53:24.522Z,80.81
2017-07-27T03:55:54.066Z,81.37
2017-07-27T03:58:23.633Z,81.42
2017-07-27T04:00:53.193Z,81.55
2017-07-27T04:03:22.792Z,81.72
2017-07-27T04:05:52.373Z,81.87
2017-07-27T04:08:21.967Z,82.11
2017-07-27T04:10:51.537Z,81.78
2017-07-27T04:13:21.078Z,81.88
2017-07-27T04:15:50.697Z,81.12
2017-07-27T04:18:20.535Z,80.58
2017-07-27T04:20:50.129Z,80.89
2017-07-27T04:23:19.670Z,80.31
2017-07-27T04:25:49.230Z,80.17
2017-07-27T04:28:18.795Z,80.03
2017-07-27T04:30:48.356Z,79.96
2017-07-27T04:33:17.893Z,80.84
2017-07-27T04:35:47.469Z,80.37
2017-07-27T04:38:17.068Z,79.79
2017-07-27T04:40:46.628Z,79.76
2017-07-27T04:43:17.591Z,78.89
2017-07-27T04:45:47.143Z,78.36
2017-07-27T04:48:16.818Z,79.05
2017-07-27T04:50:46.396Z,78.68
2017-07-27T04:53:15.987Z,79.11
2017-07-27T04:55:45.578Z,77.73
2017-07-27T04:58:15.131Z,77.81
2017-07-27T05:00:45.479Z,77.93
2017-07-27T05:03:15.043Z,77.95
2017-07-27T05:05:44.612Z,78.03
2017-07-27T05:08:14.193Z,77.90
2017-07-27T05:10:43.744Z,77.29
2017-07-27T05:13:13.331Z,76.58
2017-07-27T05:15:42.932Z,75.48
2017-07-27T05:18:12.492Z,74.38
2017-07-27T05:20:42.068Z,74.33
2017-07-27T05:23:11.661Z,73.30
2017-07-27T05:25:41.230Z,73.54
2017-07-27T05:28:10.792Z,74.04
2017-07-27T05:30:40.393Z,74.07
2017-07-27T05:33:10.000Z,72.56
2017-07-27T05:35:39.632Z,71.58
2017-07-27T05:38:09.230Z,71.71
2017-07-27T05:40:38.824Z,69.60
2017-07-27T05:43:08.447Z,70.24
2017-07-27T05:45:37.987Z,69.41
2017-07-27T05:48:08.286Z,68.94
2017-07-27T05:50:37.875Z,68.96
2017-07-27T05:53:07.640Z,68.20
2017-07-27T05:55:37.215Z,67.57
2017-07-27T05:58:06.800Z,68.30
2017-07-27T06:00:36.396Z,66.53
2017-07-27T06:03:05.974Z,66.46
2017-07-27T06:05:35.573Z,66.45
2017-07-27T06:08:05.972Z,66.52
2017-07-27T06:10:36.029Z,67.28
2017-07-27T06:13:05.576Z,67.92
2017-07-27T06:15:35.124Z,67.73
2017-07-27T06:18:05.483Z,67.46
2017-07-27T06:20:35.058Z,67.39
2017-07-27T06:23:05.571Z,65.67
2017-07-27T06:25:35.185Z,64.19
2017-07-27T06:28:05.576Z,64.58
2017-07-27T06:30:35.168Z,64.28
2017-07-27T06:33:04.821Z,65.20
2017-07-27T06:35:34.381Z,66.62
2017-07-27T06:38:04.077Z,67.88
2017-07-27T06:40:33.704Z,66.65
2017-07-27T06:43:03.274Z,64.21
2017-07-27T06:45:33.618Z,64.30
2017-07-27T06:48:03.154Z,64.96
2017-07-27T06:50:32.732Z,65.62
2017-07-27T06:53:02.289Z,64.09
2017-07-27T06:55:32.070Z,64.55
2017-07-27T06:58:01.458Z,62.88
2017-07-27T07:00:30.782Z,61.83
2017-07-27T07:03:00.354Z,63.11
2017-07-27T07:05:31.250Z,62.51
2017-07-27T07:08:00.473Z,61.95
2017-07-27T07:10:30.819Z,61.58
2017-07-27T07:13:01.488Z,60.21
2017-07-27T07:15:31.169Z,59.04
2017-07-27T07:18:00.717Z,59.32
2017-07-27T07:20:29.950Z,59.28
2017-07-27T07:23:00.272Z,59.08
2017-07-27T07:25:29.852Z,58.83
2017-07-27T07:27:59.375Z,58.94
2017-07-27T07:30:29.004Z,58.25
2017-07-27T07:32:59.355Z,59.26
2017-07-27T07:35:28.919Z,59.78
2017-07-27T07:37:58.506Z,59.15
2017-07-27T07:40:29.590Z,58.36
2017-07-27T07:42:59.243Z,59.03
2017-07-27T07:45:28.895Z,57.88
2017-07-27T07:48:00.085Z,57.58
2017-07-27T07:50:29.682Z,58.02
2017-07-27T07:52:59.274Z,56.92
2017-07-27T07:55:28.830Z,56.59
2017-07-27T07:57:58.449Z,57.78
2017-07-27T08:00:28.098Z,56.24
2017-07-27T08:02:57.663Z,55.22
2017-07-27T08:05:33.497Z,55.54
2017-07-27T08:08:12.386Z,53.41
2017-07-27T08:10:41.973Z,54.00
2017-07-27T08:13:12.269Z,53.35
2017-07-27T08:15:41.842Z,53.49
2017-07-27T08:18:11.385Z,54.70
2017-07-27T08:20:40.967Z,54.74
2017-07-27T08:23:10.596Z,53.27
2017-07-27T08:25:40.273Z,52.41
2017-07-27T08:28:09.842Z,52.41
2017-07-27T08:30:39.431Z,50.98
2017-07-27T08:33:09.808Z,48.95
2017-07-27T08:35:39.353Z,50.46
2017-07-27T08:38:10.657Z,52.45
2017-07-27T08:40:40.232Z,51.90
2017-07-27T08:43:09.773Z,50.72
2017-07-27T08:45:39.380Z,50.36
2017-07-27T08:48:08.611Z,49.26
2017-07-27T08:50:38.227Z,48.75
2017-07-27T08:53:08.139Z,48.08
2017-07-27T08:55:37.747Z,45.54
2017-07-27T08:58:07.643Z,46.78
2017-07-27T09:00:37.208Z,46.44
2017-07-27T09:03:07.557Z,46.40
2017-07-27T09:05:37.262Z,45.77
2017-07-27T09:08:06.843Z,44.73
2017-07-27T09:10:37.173Z,45.40
2017-07-27T09:13:07.549Z,44.97
2017-07-27T09:15:37.202Z,45.01
2017-07-27T09:18:07.571Z,43.24
2017-07-27T09:20:37.159Z,43.87
2017-07-27T09:23:06.751Z,43.58
2017-07-27T09:25:37.128Z,43.13
2017-07-27T09:28:06.690Z,42.88
2017-07-27T09:30:37.061Z,43.15
2017-07-27T09:33:06.392Z,42.05
2017-07-27T09:35:36.052Z,41.46
2017-07-27T09:38:05.676Z,42.11
2017-07-27T09:40:35.237Z,42.75
2017-07-27T09:43:05.574Z,41.24
2017-07-27T09:45:35.892Z,42.07
2017-07-27T09:48:06.189Z,40.66
2017-07-27T09:50:35.796Z,39.65
2017-07-27T09:53:05.382Z,41.52
2017-07-27T09:55:34.972Z,42.80
2017-07-27T09:58:05.461Z,41.91
2017-07-27T10:00:35.783Z,41.47
2017-07-27T10:03:05.907Z,40.31
2017-07-27T10:05:36.249Z,39.58
2017-07-27T10:08:06.404Z,37.98
2017-07-27T10:10:35.948Z,36.83
2017-07-27T10:13:05.526Z,35.75
2017-07-27T10:15:35.123Z,36.93
2017-07-27T10:18:04.737Z,38.40
2017-07-27T10:20:34.303Z,37.83
2017-07-27T10:23:04.689Z,38.08
2017-07-27T10:25:34.278Z,39.59
2017-07-27T10:28:04.448Z,40.57
2017-07-27T10:30:34.014Z,40.99
2017-07-27T10:33:03.541Z,41.70
2017-07-27T10:35:33.993Z,42.33
2017-07-27T10:38:03.546Z,40.31
2017-07-27T10:40:33.150Z,39.05
2017-07-27T10:43:02.718Z,39.74
2017-07-27T10:45:33.778Z,41.59
2017-07-27T10:48:03.339Z,40.23
2017-07-27T10:50:32.897Z,42.03
2017-07-27T10:53:02.445Z,42.02
2017-07-27T10:55:32.012Z,42.66
2017-07-27T10:58:01.585Z,43.71
2017-07-27T11:00:31.179Z,43.81
2017-07-27T11:03:00.724Z,45.00
2017-07-27T11:05:30.363Z,46.01
2017-07-27T11:07:59.935Z,47.06
2017-07-27T11:10:29.581Z,47.96
2017-07-27T11:12:59.236Z,48.55
2017-07-27T11:15:28.817Z,49.16
2017-07-27T11:17:59.101Z,48.72
2017-07-27T11:20:28.758Z,47.38
2017-07-27T11:22:58.343Z,47.93
2017-07-27T11:25:27.903Z,48.70
2017-07-27T11:27:58.264Z,49.12
2017-07-27T11:30:27.851Z,49.35
2017-07-27T11:32:57.430Z,49.73
2017-07-27T11:35:26.970Z,52.20
2017-07-27T11:37:56.682Z,54.33
2017-07-27T11:40:26.250Z,57.02
2017-07-27T11:42:56.889Z,57.97
2017-07-27T11:45:27.236Z,59.43
2017-07-27T11:47:56.849Z,61.49
2017-07-27T11:50:26.423Z,62.99
2017-07-27T11:52:56.031Z,63.29
2017-07-27T11:55:26.424Z,64.10
2017-07-27T11:57:56.957Z,62.75
2017-07-27T12:00:25.839Z,62.32
2017-07-27T12:02:55.402Z,61.22
2017-07-27T12:05:25.077Z,59.56
2017-07-27T12:07:56.613Z,58.19
2017-07-27T12:10:26.361Z,56.33
2017-07-27T12:12:56.884Z,53.71
2017-07-27T12:15:26.493Z,53.32
2017-07-27T12:17:56.135Z,52.08
2017-07-27T12:20:25.697Z,52.34
2017-07-27T12:22:55.248Z,52.68
2017-07-27T12:25:25.813Z,53.21
2017-07-27T12:27:56.325Z,54.79
2017-07-27T12:30:25.666Z,53.85
2017-07-27T12:32:55.242Z,56.63
2017-07-27T12:35:24.822Z,58.73
2017-07-27T12:37:54.441Z,61.38
2017-07-27T12:40:24.021Z,59.79
2017-07-27T12:42:53.642Z,59.84
2017-07-27T12:45:23.241Z,59.70
2017-07-27T12:47:53.602Z,57.22
2017-07-27T12:50:23.401Z,59.94
2017-07-27T12:52:53.052Z,58.90
2017-07-27T12:55:22.269Z,59.80
2017-07-27T12:57:52.624Z,61.24
2017-07-27T13:00:22.191Z,59.70
2017-07-27T13:02:51.772Z,60.13
2017-07-27T13:05:21.377Z,58.32
2017-07-27T13:07:51.953Z,59.48
2017-07-27T13:10:21.524Z,59.91
2017-07-27T13:12:51.090Z,59.54
2017-07-27T13:15:20.675Z,59.58
2017-07-27T13:17:51.045Z,61.63
2017-07-27T13:20:20.623Z,61.99
2017-07-27T13:22:50.960Z,62.61
2017-07-27T13:25:20.535Z,62.00
2017-07-27T13:27:50.951Z,61.54
2017-07-27T13:30:20.537Z,59.37
2017-07-27T13:32:50.115Z,58.18
2017-07-27T13:35:19.663Z,55.94
2017-07-27T13:37:49.250Z,54.97
2017-07-27T13:40:18.858Z,56.42
2017-07-27T13:42:48.458Z,57.70
2017-07-27T13:45:18.029Z,58.87
2017-07-27T13:47:48.482Z,59.23
2017-07-27T13:50:18.035Z,56.97
2017-07-27T13:52:47.637Z,53.96
2017-07-27T13:55:17.205Z,51.05
2017-07-27T13:57:46.762Z,50.71
2017-07-27T14:00:16.404Z,52.97
2017-07-27T14:02:46.049Z,53.21
2017-07-27T14:05:15.711Z,52.91
2017-07-27T14:07:46.051Z,54.82
2017-07-27T14:10:16.406Z,53.55
2017-07-27T14:12:46.020Z,51.52
2017-07-27T14:15:15.629Z,49.04
2017-07-27T14:17:45.247Z,48.37
2017-07-27T14:20:14.820Z,48.24
2017-07-27T14:22:44.415Z,46.81
2017-07-27T14:25:14.088Z,46.74
2017-07-27T14:27:43.700Z,47.46
2017-07-27T14:30:12.897Z,48.75
2017-07-27T14:32:42.497Z,50.55
2017-07-27T14:35:12.056Z,50.87
2017-07-27T14:37:41.655Z,50.52
2017-07-27T14:40:11.277Z,50.88
2017-07-27T14:42:40.813Z,51.72
2017-07-27T14:45:10.461Z,52.16
2017-07-27T14:47:40.045Z,52.77
2017-07-27T14:50:09.585Z,53.81
2017-07-27T14:52:39.896Z,52.21
2017-07-27T14:55:09.463Z,52.68
2017-07-27T14:57:39.470Z,53.03
2017-07-27T15:00:09.040Z,50.28
2017-07-27T15:02:39.406Z,49.62
2017-07-27T15:05:08.981Z,46.70
2017-07-27T15:07:39.427Z,45.15
2017-07-27T15:10:08.996Z,43.44
2017-07-27T15:12:39.358Z,39.37
2017-07-27T15:15:08.919Z,38.00
2017-07-27T15:17:41.495Z,35.96
2017-07-27T15:20:11.036Z,38.27
2017-07-27T15:22:41.358Z,42.30
2017-07-27T15:25:11.704Z,43.46
2017-07-27T15:27:41.316Z,45.19
2017-07-27T15:30:10.865Z,47.59
2017-07-27T15:32:40.474Z,48.87
2017-07-27T15:35:10.043Z,51.98
2017-07-27T15:37:39.614Z,53.74
2017-07-27T15:40:09.953Z,54.65
2017-07-27T15:42:39.548Z,54.76
2017-07-27T15:45:09.130Z,55.72
2017-07-27T15:47:38.742Z,56.11
2017-07-27T15:50:08.306Z,56.11
2017-07-27T15:52:37.879Z,55.87
2017-07-27T15:55:07.538Z,56.51
2017-07-27T15:57:37.100Z,57.39
2017-07-27T16:00:07.491Z,57.52
2017-07-27T16:02:37.032Z,57.19
2017-07-27T16:05:07.569Z,57.66
2017-07-27T16:07:37.105Z,57.89
2017-07-27T16:10:06.668Z,57.66
2017-07-27T16:12:37.021Z,57.93
2017-07-27T16:15:06.727Z,58.13
2017-07-27T16:17:36.329Z,58.27
2017-07-27T16:20:05.860Z,59.44
2017-07-27T16:22:35.499Z,59.52
2017-07-27T16:25:05.057Z,59.49
2017-07-27T16:27:34.640Z,59.20
2017-07-27T16:30:04.618Z,59.66
2017-07-27T16:32:34.202Z,59.15
2017-07-27T16:35:03.788Z,59.08
2017-07-27T16:37:33.379Z,59.68
2017-07-27T16:40:02.975Z,59.49
2017-07-27T16:42:32.511Z,58.58
2017-07-27T16:45:02.107Z,59.21
2017-07-27T16:47:31.665Z,59.52
2017-07-27T16:50:01.254Z,59.89
2017-07-27T16:52:30.864Z,60.72
2017-07-27T16:55:00.447Z,60.92
2017-07-27T16:57:30.043Z,61.34
2017-07-27T17:00:00.369Z,61.77
2017-07-27T17:02:30.742Z,64.39
2017-07-27T17:05:00.323Z,65.80
2017-07-27T17:07:29.920Z,65.87
2017-07-27T17:09:59.478Z,65.89
2017-07-27T17:12:29.016Z,65.20
2017-07-27T17:14:58.576Z,65.39
2017-07-27T17:17:28.208Z,64.85
2017-07-27T17:19:57.890Z,65.10
2017-07-27T17:22:30.006Z,64.47
2017-07-27T17:24:59.567Z,64.95
2017-07-27T17:27:28.911Z,65.07
2017-07-27T17:29:58.486Z,64.37
2017-07-27T17:32:28.015Z,64.32
2017-07-27T17:34:57.580Z,62.58
2017-07-27T17:37:27.132Z,64.24
2017-07-27T17:39:56.709Z,63.76
2017-07-27T17:42:26.307Z,63.06
2017-07-27T17:44:55.887Z,62.87
2017-07-27T17:47:25.584Z,63.05
2017-07-27T17:49:56.044Z,65.05
2017-07-27T17:52:25.654Z,65.93
2017-07-27T17:54:55.228Z,65.99
2017-07-27T17:57:27.541Z,67.24
2017-07-27T17:59:57.975Z,64.17
2017-07-27T18:02:27.575Z,64.08
2017-07-27T18:04:57.136Z,64.64
2017-07-27T18:07:26.715Z,63.31
2017-07-27T18:09:56.254Z,64.09
2017-07-27T18:12:25.855Z,64.37
2017-07-27T18:14:55.383Z,64.89
2017-07-27T18:17:24.936Z,64.39
2017-07-27T18:19:54.493Z,63.28
2017-07-27T18:22:24.013Z,63.03
2017-07-27T18:24:53.592Z,62.37
2017-07-27T18:27:23.726Z,62.69
2017-07-27T18:29:53.326Z,62.83
2017-07-27T18:32:23.647Z,62.71
2017-07-27T18:34:54.379Z,63.20
2017-07-27T18:37:25.118Z,64.15
2017-07-27T18:39:54.725Z,64.01
2017-07-27T18:42:24.263Z,64.98
2017-07-27T18:44:53.812Z,66.14
2017-07-27T18:47:23.436Z,66.94
2017-07-27T18:49:53.011Z,67.48
2017-07-27T18:52:22.624Z,66.63
2017-07-27T18:54:52.265Z,67.01
2017-07-27T18:57:21.003Z,67.57
2017-07-27T18:59:50.598Z,67.93
2017-07-27T19:02:20.175Z,68.39
2017-07-27T19:04:49.779Z,68.86
2017-07-27T19:07:19.372Z,69.07
2017-07-27T19:09:49.066Z,70.38
2017-07-27T19:12:18.423Z,70.59
2017-07-27T19:14:48.021Z,70.59
2017-07-27T19:17:17.576Z,70.81
2017-07-27T19:19:47.172Z,70.80
2017-07-27T19:22:16.754Z,71.84
2017-07-27T19:24:46.353Z,69.55
2017-07-27T19:27:15.943Z,69.91
2017-07-27T19:29:46.297Z,69.63
2017-07-27T19:32:15.886Z,69.49
2017-07-27T19:34:45.628Z,69.74
2017-07-27T19:37:20.950Z,70.72
2017-07-27T19:40:02.639Z,71.54
2017-07-27T19:42:36.281Z,72.00
2017-07-27T19:45:05.702Z,71.63
2017-07-27T19:47:37.195Z,72.29
2017-07-27T19:50:07.533Z,72.87
2017-07-27T19:52:37.126Z,72.75
2017-07-27T19:55:26.546Z,72.39
2017-07-27T19:57:57.130Z,73.05
2017-07-27T20:00:26.752Z,72.39
2017-07-27T20:06:13.844Z,71.78
2017-07-27T20:08:43.438Z,72.23
2017-07-27T20:11:12.990Z,72.49
2017-07-27T20:13:43.332Z,72.29
2017-07-27T20:16:12.897Z,72.23
2017-07-27T20:18:43.261Z,71.69
2017-07-27T20:21:12.827Z,72.14
2017-07-27T20:23:42.392Z,72.53
2017-07-27T20:26:13.033Z,71.75
2017-07-27T20:28:42.652Z,72.43
2017-07-27T20:31:12.237Z,72.49
2017-07-27T20:33:41.837Z,72.50
2017-07-27T20:36:11.422Z,72.37
2017-07-27T20:38:41.761Z,72.82
2017-07-27T20:41:11.369Z,73.43
2017-07-27T20:43:40.969Z,73.21
2017-07-27T20:46:10.564Z,72.79
2017-07-27T20:48:40.936Z,72.62
2017-07-27T20:51:16.122Z,72.94
2017-07-27T20:53:45.661Z,72.87
2017-07-27T20:56:17.233Z,72.25
2017-07-27T20:58:52.599Z,72.07
2017-07-27T21:01:22.169Z,71.42
2017-07-27T21:03:51.720Z,71.07
2017-07-27T21:06:21.954Z,71.35
2017-07-27T21:08:51.327Z,71.81
2017-07-27T21:11:20.899Z,72.01
2017-07-27T21:13:50.444Z,71.86
2017-07-27T21:16:20.018Z,71.04
2017-07-27T21:18:49.599Z,70.91
2017-07-27T21:21:19.920Z,70.98
2017-07-27T21:23:50.232Z,71.29
2017-07-27T21:26:20.573Z,71.16
2017-07-27T21:28:50.891Z,70.62
2017-07-27T21:31:20.459Z,70.63
2017-07-27T21:33:49.988Z,70.41
2017-07-27T21:36:20.466Z,70.37
2017-07-27T21:38:50.092Z,70.12
2017-07-27T21:41:19.647Z,69.86
2017-07-27T21:44:12.359Z,69.81
2017-07-27T21:46:41.916Z,69.79
2017-07-27T21:49:12.461Z,69.66
2017-07-27T21:51:42.004Z,69.33
2017-07-27T21:54:11.577Z,69.14
2017-07-27T21:56:41.187Z,69.18
2017-07-27T21:59:10.722Z,69.39
2017-07-27T22:01:40.326Z,69.55
2017-07-27T22:04:09.886Z,69.53
2017-07-27T22:06:40.213Z,69.50
2017-07-27T22:09:10.488Z,69.01
2017-07-27T22:11:40.066Z,68.63
2017-07-27T22:14:09.613Z,68.72
2017-07-27T22:16:39.183Z,68.60
2017-07-27T22:19:08.802Z,68.57
2017-07-27T22:21:38.335Z,68.53
2017-07-27T22:24:07.874Z,68.48
2017-07-27T22:26:38.288Z,68.41
2017-07-27T22:29:13.409Z,68.77
2017-07-27T22:31:42.949Z,69.13
2017-07-27T22:34:13.266Z,69.31
2017-07-27T22:36:42.807Z,69.88
2017-07-27T22:39:12.384Z,70.35
2017-07-27T22:41:41.994Z,71.36
2017-07-27T22:44:12.329Z,71.35
2017-07-27T22:46:42.685Z,71.43
2017-07-27T22:49:12.228Z,71.65
2017-07-27T22:51:42.562Z,72.33
2017-07-27T22:54:12.877Z,71.91
2017-07-27T22:56:42.442Z,71.70
2017-07-27T22:59:11.996Z,72.26
2017-07-27T23:01:41.557Z,72.41
2017-07-27T23:04:11.136Z,72.55
2017-07-27T23:06:41.433Z,73.29
2017-07-27T23:09:11.002Z,73.29
2017-07-27T23:11:40.553Z,73.20
2017-07-27T23:14:10.071Z,74.03
2017-07-27T23:16:40.411Z,74.08
2017-07-27T23:19:10.044Z,73.91
2017-07-27T23:21:39.579Z,73.46
2017-07-27T23:24:09.131Z,72.21
2017-07-27T23:26:38.670Z,70.52
2017-07-27T23:29:08.203Z,70.18
2017-07-27T23:31:37.749Z,71.06
2017-07-27T23:34:08.074Z,71.14
2017-07-27T23:36:38.388Z,70.56
2017-07-27T23:39:08.735Z,71.68
2017-07-27T23:41:38.311Z,71.29
2017-07-27T23:44:07.870Z,71.82
2017-07-27T23:46:37.522Z,71.87
2017-07-27T23:49:07.085Z,71.74
2017-07-27T23:51:36.668Z,71.62
2017-07-27T23:54:21.477Z,70.03
